Time;durP1;ratioP1;P1;durP2;ratioP2;P2;SDS_P1;SDS_P2;PMS_P1;PMS_P2;Temp;Humidity;BMP_temperature;BMP_pressure;BME280_temperature;BME280_humidity;BME280_pressure;Samples;Min_cycle;Max_cycle;Signal;HPM_P1;HPM_P2
2024/01/14 00:00:08;;;;;;;1999.90;999.90;;;2.00;99.90;;;;;;5012363;28;20164;-76
2024/01/14 00:02:34;;;;;;;1999.90;999.90;;;2.00;99.90;;;;;;5012312;28;20173;-76
2024/01/14 00:05:00;;;;;;;1999.90;999.90;;;2.00;99.90;;;;;;5011998;28;20173;-76
2024/01/14 00:07:25;;;;;;;1999.90;999.90;;;2.10;99.90;;;;;;5012218;28;20176;-75
2024/01/14 00:09:51;;;;;;;1999.90;999.90;;;2.10;99.90;;;;;;5012338;28;20188;-76
2024/01/14 00:12:16;;;;;;;1999.90;999.90;;;2.10;99.90;;;;;;5012099;28;20197;-76
2024/01/14 00:14:42;;;;;;;1999.90;999.90;;;2.10;99.90;;;;;;5012039;28;20161;-76
2024/01/14 00:17:08;;;;;;;1999.90;999.90;;;2.10;99.90;;;;;;5012146;28;20169;-76
2024/01/14 00:19:33;;;;;;;1999.90;999.90;;;2.00;99.90;;;;;;5012098;28;20169;-75
2024/01/14 00:22:00;;;;;;;1999.90;999.90;;;2.10;99.90;;;;;;5012104;28;20306;-75
2024/01/14 00:24:26;;;;;;;1999.90;999.90;;;1.90;99.90;;;;;;5011848;28;20173;-76
2024/01/14 00:26:51;;;;;;;1999.90;999.90;;;2.10;99.90;;;;;;5012066;28;20177;-75
2024/01/14 00:29:17;;;;;;;1999.90;999.90;;;2.10;99.90;;;;;;5012107;28;20173;-76
2024/01/14 00:31:42;;;;;;;1999.90;999.90;;;3.30;99.90;;;;;;5011796;28;20208;-75
2024/01/14 00:34:08;;;;;;;1999.90;999.90;;;2.00;99.90;;;;;;5011788;28;20165;-76
2024/01/14 00:36:40;;;;;;;1999.90;999.90;;;2.00;99.90;;;;;;5011921;28;20169;-75
2024/01/14 00:39:06;;;;;;;1999.90;999.90;;;1.90;99.90;;;;;;5011966;28;20169;-75
2024/01/14 00:41:32;;;;;;;1999.90;999.90;;;2.10;99.90;;;;;;5011861;28;20612;-75
2024/01/14 00:43:57;;;;;;;1999.90;999.90;;;2.00;99.90;;;;;;5010539;28;20223;-75
2024/01/14 00:46:23;;;;;;;1999.90;999.90;;;2.10;99.90;;;;;;5011871;28;20900;-76
2024/01/14 00:48:49;;;;;;;1999.90;999.90;;;2.10;99.90;;;;;;5011938;28;20542;-76
2024/01/14 00:51:15;;;;;;;1999.90;999.90;;;2.00;99.90;;;;;;5011626;28;20459;-75
2024/01/14 00:53:40;;;;;;;1999.90;999.90;;;2.10;99.90;;;;;;5013508;28;20168;-76
2024/01/14 00:56:06;;;;;;;1999.90;999.90;;;2.00;99.90;;;;;;5015691;28;20208;-75
2024/01/14 00:58:32;;;;;;;1999.90;999.90;;;2.00;99.90;;;;;;5015665;28;20169;-76
2024/01/14 01:00:57;;;;;;;1999.90;999.90;;;2.00;99.90;;;;;;5015777;28;20228;-73
2024/01/14 01:03:23;;;;;;;1999.90;999.90;;;1.80;99.90;;;;;;5015438;28;20177;-73
2024/01/14 01:05:48;;;;;;;1999.90;999.90;;;2.10;99.90;;;;;;5015298;28;20539;-74
2024/01/14 01:08:14;;;;;;;1999.90;999.90;;;2.00;99.90;;;;;;5015491;28;20173;-74
2024/01/14 01:10:40;;;;;;;1999.90;999.90;;;2.10;99.90;;;;;;5015316;28;20189;-74
2024/01/14 01:13:05;;;;;;;1999.90;999.90;;;2.00;99.90;;;;;;5015467;28;20169;-74
2024/01/14 01:15:31;;;;;;;1999.90;999.90;;;2.10;99.90;;;;;;5015076;28;20230;-74
2024/01/14 01:17:56;;;;;;;1999.90;999.90;;;2.10;99.90;;;;;;5015275;28;20204;-74
2024/01/14 01:20:22;;;;;;;1999.90;999.90;;;1.90;99.90;;;;;;5015282;28;20185;-74
2024/01/14 01:22:48;;;;;;;1999.90;999.90;;;2.00;99.90;;;;;;5015191;28;20173;-73
2024/01/14 01:25:14;;;;;;;1999.90;999.90;;;2.10;99.90;;;;;;5015092;28;20172;-73
2024/01/14 01:27:40;;;;;;;1999.90;999.90;;;2.10;99.90;;;;;;5015158;28;20173;-73
2024/01/14 01:30:06;;;;;;;1999.90;999.90;;;1.80;99.90;;;;;;5014905;28;20404;-74
2024/01/14 01:32:31;;;;;;;1999.90;999.90;;;1.90;99.90;;;;;;5014907;28;20200;-73
2024/01/14 01:34:57;;;;;;;1999.90;999.90;;;1.90;99.90;;;;;;5014750;28;20535;-74
2024/01/14 01:37:23;;;;;;;1999.90;999.90;;;1.60;99.90;;;;;;5014877;28;20173;-74
2024/01/14 01:39:48;;;;;;;1999.90;999.90;;;1.90;99.90;;;;;;5014901;28;20176;-74
2024/01/14 01:42:14;;;;;;;1999.90;999.90;;;2.00;99.90;;;;;;5014790;28;20664;-74
2024/01/14 01:44:39;;;;;;;1999.90;999.90;;;2.00;99.90;;;;;;5014588;28;20191;-74
2024/01/14 01:47:05;;;;;;;1999.90;999.90;;;1.90;99.90;;;;;;5014697;28;20173;-75
2024/01/14 01:49:31;;;;;;;1999.90;999.90;;;1.90;99.90;;;;;;5014686;28;20264;-75
2024/01/14 01:51:59;;;;;;;1999.90;999.90;;;1.90;99.90;;;;;;5014690;28;20299;-75
2024/01/14 01:54:26;;;;;;;1999.90;999.90;;;1.90;99.90;;;;;;5014500;28;20407;-75
2024/01/14 01:56:53;;;;;;;1999.90;999.90;;;1.80;99.90;;;;;;5014497;28;20602;-75
2024/01/14 01:59:19;;;;;;;1999.90;999.90;;;2.00;99.90;;;;;;5014503;28;20252;-75
2024/01/14 02:01:46;;;;;;;1999.90;999.90;;;2.00;99.90;;;;;;5014361;28;20275;-75
2024/01/14 02:04:13;;;;;;;1999.90;999.90;;;2.10;99.90;;;;;;5013926;28;20408;-75
2024/01/14 02:06:41;;;;;;;1999.90;999.90;;;1.90;99.90;;;;;;5013953;28;20169;-74
2024/01/14 02:09:08;;;;;;;1999.90;999.90;;;2.00;99.90;;;;;;5014378;28;20176;-75
2024/01/14 02:11:35;;;;;;;1999.90;999.90;;;2.00;99.90;;;;;;5014135;28;20724;-75
2024/01/14 02:14:01;;;;;;;1999.90;999.90;;;2.00;99.90;;;;;;5014349;28;20632;-75
2024/01/14 02:16:26;;;;;;;1999.90;999.90;;;2.10;99.90;;;;;;5014158;28;20846;-75
2024/01/14 02:18:52;;;;;;;1999.90;999.90;;;2.00;99.90;;;;;;5014118;28;20260;-75
2024/01/14 02:21:22;;;;;;;1999.90;999.90;;;2.00;99.90;;;;;;5014064;28;20267;-75
2024/01/14 02:23:57;;;;;;;1999.90;999.90;;;1.90;99.90;;;;;;5013846;28;20323;-75
2024/01/14 02:26:23;;;;;;;1999.90;999.90;;;1.70;99.90;;;;;;5014036;28;20164;-75
2024/01/14 02:28:49;;;;;;;1999.90;999.90;;;2.00;99.90;;;;;;5013919;28;20657;-75
2024/01/14 02:31:15;;;;;;;1999.90;999.90;;;1.90;99.90;;;;;;5013710;28;20197;-75
2024/01/14 02:33:40;;;;;;;1999.90;999.90;;;2.00;99.90;;;;;;5013659;28;20172;-75
2024/01/14 02:36:06;;;;;;;1999.90;999.90;;;1.90;99.90;;;;;;5013791;28;20641;-76
2024/01/14 02:38:32;;;;;;;1999.90;999.90;;;2.00;99.90;;;;;;5013798;28;20161;-75
2024/01/14 02:40:57;;;;;;;1999.90;999.90;;;1.90;99.90;;;;;;5013683;28;20267;-75
2024/01/14 02:43:23;;;;;;;1999.90;999.90;;;1.90;99.90;;;;;;5013649;28;20566;-75
2024/01/14 02:45:48;;;;;;;1999.90;999.90;;;1.90;99.90;;;;;;5013425;28;20180;-76
2024/01/14 02:48:14;;;;;;;1999.90;999.90;;;1.80;99.90;;;;;;5013758;28;20176;-75
2024/01/14 02:50:39;;;;;;;1999.90;999.90;;;1.90;99.90;;;;;;5013513;28;20684;-75
2024/01/14 02:53:05;;;;;;;1999.90;999.90;;;2.00;99.90;;;;;;5013441;28;20193;-75
2024/01/14 02:55:30;;;;;;;1999.90;999.90;;;1.90;99.90;;;;;;5013270;28;20161;-75
2024/01/14 02:57:57;;;;;;;1999.90;999.90;;;1.80;99.90;;;;;;5013393;28;20219;-75
2024/01/14 03:00:23;;;;;;;1999.90;999.90;;;1.90;99.90;;;;;;5013338;28;20189;-75
2024/01/14 03:02:48;;;;;;;1999.90;999.90;;;1.80;99.90;;;;;;5013274;28;20715;-75
2024/01/14 03:05:14;;;;;;;1999.90;999.90;;;1.90;99.90;;;;;;5013100;28;20165;-75
2024/01/14 03:07:40;;;;;;;1999.90;999.90;;;1.80;99.90;;;;;;5013271;28;20169;-75
2024/01/14 03:10:06;;;;;;;1999.90;999.90;;;1.70;99.90;;;;;;5013206;28;20652;-75
2024/01/14 03:12:31;;;;;;;1999.90;999.90;;;1.80;99.90;;;;;;5013082;28;20197;-75
2024/01/14 03:14:57;;;;;;;1999.90;999.90;;;1.80;99.90;;;;;;5012900;28;20427;-75
2024/01/14 03:17:23;;;;;;;1999.90;999.90;;;1.90;99.90;;;;;;5012134;28;20188;-75
2024/01/14 03:19:49;;;;;;;1999.90;999.90;;;2.00;99.90;;;;;;5012971;28;20219;-75
2024/01/14 03:22:15;;;;;;;1999.90;999.90;;;1.90;99.90;;;;;;5012977;28;20197;-75
2024/01/14 03:24:40;;;;;;;1999.90;999.90;;;1.70;99.90;;;;;;5012815;28;20165;-75
2024/01/14 03:27:06;;;;;;;1999.90;999.90;;;2.00;99.90;;;;;;5012932;28;20683;-75
2024/01/14 03:29:31;;;;;;;1999.90;999.90;;;1.90;99.90;;;;;;5012906;28;20183;-75
2024/01/14 03:31:57;;;;;;;1999.90;999.90;;;1.90;99.90;;;;;;5012594;28;20696;-75
2024/01/14 03:34:23;;;;;;;1999.90;999.90;;;1.90;99.90;;;;;;5012603;28;20169;-74
2024/01/14 03:36:48;;;;;;;1999.90;999.90;;;2.00;99.90;;;;;;5012741;28;20169;-75
2024/01/14 03:39:14;;;;;;;1999.90;999.90;;;2.00;99.90;;;;;;5012753;28;20630;-75
2024/01/14 03:41:40;;;;;;;1999.90;999.90;;;1.90;99.90;;;;;;5012596;28;20284;-75
2024/01/14 03:44:06;;;;;;;1999.90;999.90;;;1.80;99.90;;;;;;5012430;28;20637;-75
2024/01/14 03:46:32;;;;;;;1999.90;999.90;;;1.90;99.90;;;;;;5012541;28;20689;-75
2024/01/14 03:48:57;;;;;;;1999.90;999.90;;;2.00;99.90;;;;;;5012510;28;20256;-76
2024/01/14 03:51:23;;;;;;;1999.90;999.90;;;1.90;99.90;;;;;;5012410;28;20225;-75
2024/01/14 03:53:48;;;;;;;1999.90;999.90;;;2.00;99.90;;;;;;5012316;28;20606;-75
2024/01/14 03:56:14;;;;;;;1999.90;999.90;;;1.90;99.90;;;;;;5012466;28;20223;-75
2024/01/14 03:58:40;;;;;;;1999.90;999.90;;;2.00;99.90;;;;;;5012454;28;20200;-75
2024/01/14 04:01:05;;;;;;;1999.90;999.90;;;2.00;99.90;;;;;;5012347;28;20196;-75
2024/01/14 04:03:31;;;;;;;1999.90;999.90;;;1.90;99.90;;;;;;5012398;28;20649;-75
2024/01/14 04:05:58;;;;;;;1999.90;999.90;;;2.10;99.90;;;;;;5012105;28;20177;-75
2024/01/14 04:08:23;;;;;;;1999.90;999.90;;;1.90;99.90;;;;;;5012344;28;20165;-75
2024/01/14 04:10:50;;;;;;;1999.90;999.90;;;2.00;99.90;;;;;;5012035;28;20193;-76
2024/01/14 04:13:15;;;;;;;1999.90;999.90;;;1.90;99.90;;;;;;5012249;28;20175;-75
2024/01/14 04:15:41;;;;;;;1999.90;999.90;;;1.90;99.90;;;;;;5012023;28;20665;-75
2024/01/14 04:18:06;;;;;;;1999.90;999.90;;;1.80;99.90;;;;;;5012142;28;20176;-75
2024/01/14 04:20:32;;;;;;;1999.90;999.90;;;1.90;99.90;;;;;;5012194;28;20227;-75
2024/01/14 04:22:58;;;;;;;1999.90;999.90;;;2.10;99.90;;;;;;5012165;28;20173;-75
2024/01/14 04:25:23;;;;;;;1999.90;999.90;;;1.90;99.90;;;;;;5011855;28;20177;-75
2024/01/14 04:27:49;;;;;;;1999.90;999.90;;;1.90;99.90;;;;;;5012648;28;20696;-75
2024/01/14 04:30:14;;;;;;;1999.90;999.90;;;1.60;99.90;;;;;;5016040;28;20170;-76
2024/01/14 04:32:40;;;;;;;1999.90;999.90;;;1.70;99.90;;;;;;5016029;28;20726;-75
2024/01/14 04:35:06;;;;;;;1999.90;999.90;;;1.80;99.90;;;;;;5015856;28;20165;-74
2024/01/14 04:37:32;;;;;;;1999.90;999.90;;;1.70;99.90;;;;;;5016054;28;20600;-75
2024/01/14 04:39:57;;;;;;;1999.90;999.90;;;1.80;99.90;;;;;;5015905;28;20676;-75
2024/01/14 04:42:23;;;;;;;1999.90;999.90;;;1.50;99.90;;;;;;5015899;28;20236;-75
2024/01/14 04:44:49;;;;;;;1999.90;999.90;;;1.80;99.90;;;;;;5015765;28;20702;-75
2024/01/14 04:47:14;;;;;;;1999.90;999.90;;;1.60;99.90;;;;;;5015789;28;20411;-75
2024/01/14 04:49:40;;;;;;;1999.90;999.90;;;1.80;99.90;;;;;;5015867;28;20177;-74
2024/01/14 04:52:05;;;;;;;1999.90;999.90;;;1.70;99.90;;;;;;5015646;28;20672;-75
2024/01/14 04:54:31;;;;;;;1999.90;999.90;;;1.50;99.90;;;;;;5015499;28;20594;-75
2024/01/14 04:56:57;;;;;;;1999.90;999.90;;;4.00;99.90;;;;;;5015644;28;20184;-75
2024/01/14 04:59:23;;;;;;;1999.90;999.90;;;1.60;99.90;;;;;;5015693;28;20161;-75
2024/01/14 05:01:49;;;;;;;1999.90;999.90;;;1.50;99.90;;;;;;5015531;28;20200;-76
2024/01/14 05:04:15;;;;;;;1999.90;999.90;;;1.60;99.90;;;;;;5015369;28;20169;-75
2024/01/14 05:06:40;;;;;;;1999.90;999.90;;;1.60;99.90;;;;;;5015513;28;20184;-74
2024/01/14 05:09:06;;;;;;;1999.90;999.90;;;1.60;99.90;;;;;;5015502;28;20180;-74
2024/01/14 05:11:31;;;;;;;1999.90;999.90;;;1.50;99.90;;;;;;5015351;28;20200;-74
2024/01/14 05:13:57;;;;;;;1999.90;999.90;;;1.70;99.90;;;;;;5015156;28;20640;-74
2024/01/14 05:16:23;;;;;;;1999.90;999.90;;;1.70;99.90;;;;;;5015262;28;20640;-75
2024/01/14 05:18:48;;;;;;;1999.90;999.90;;;1.80;99.90;;;;;;5015292;28;20847;-74
2024/01/14 05:21:16;;;;;;;1999.90;999.90;;;1.70;99.90;;;;;;5015196;28;20193;-74
2024/01/14 05:23:42;;;;;;;1999.90;999.90;;;1.70;99.90;;;;;;5014926;28;20169;-74
2024/01/14 05:26:07;;;;;;;1999.90;999.90;;;1.60;99.90;;;;;;5015123;28;20176;-74
2024/01/14 05:28:33;;;;;;;1999.90;999.90;;;1.70;99.90;;;;;;5015111;28;20495;-74
2024/01/14 05:30:59;;;;;;;1999.90;999.90;;;1.60;99.90;;;;;;5014795;28;20510;-74
2024/01/14 05:33:24;;;;;;;1999.90;999.90;;;1.70;99.90;;;;;;5015048;28;20174;-74
2024/01/14 05:35:50;;;;;;;1999.90;999.90;;;1.50;99.90;;;;;;5014730;28;20311;-74
2024/01/14 05:38:15;;;;;;;1999.90;999.90;;;1.70;99.90;;;;;;5014942;28;20211;-74
2024/01/14 05:40:41;;;;;;;1999.90;999.90;;;1.60;99.90;;;;;;5013745;28;20196;-74
2024/01/14 05:43:06;;;;;;;1999.90;999.90;;;1.60;99.90;;;;;;5014862;28;20180;-74
2024/01/14 05:45:32;;;;;;;1999.90;999.90;;;1.90;99.90;;;;;;5014580;28;20177;-74
2024/01/14 05:47:57;;;;;;;1999.90;999.90;;;1.60;99.90;;;;;;5014802;28;20251;-74
2024/01/14 05:50:23;;;;;;;1999.90;999.90;;;1.60;99.90;;;;;;5014788;28;20193;-74
2024/01/14 05:52:49;;;;;;;1999.90;999.90;;;1.70;99.90;;;;;;5014592;28;20798;-74
2024/01/14 05:55:14;;;;;;;1999.90;999.90;;;1.50;99.90;;;;;;5014326;28;20644;-73
2024/01/14 05:57:40;;;;;;;1999.90;999.90;;;1.70;99.90;;;;;;5014592;28;20172;-73
2024/01/14 06:00:06;;;;;;;1999.90;999.90;;;1.40;99.90;;;;;;5014438;28;20610;-74
2024/01/14 06:02:32;;;;;;;1999.90;999.90;;;1.40;99.90;;;;;;5014540;28;20547;-74
2024/01/14 06:04:58;;;;;;;1999.90;999.90;;;1.60;99.90;;;;;;5014216;28;20176;-74
2024/01/14 06:07:23;;;;;;;1999.90;999.90;;;1.40;99.90;;;;;;5014370;28;20458;-74
2024/01/14 06:09:49;;;;;;;1999.90;999.90;;;1.60;99.90;;;;;;5014344;28;20200;-74
2024/01/14 06:12:15;;;;;;;1999.90;999.90;;;1.60;99.90;;;;;;5014181;28;20205;-74
2024/01/14 06:14:41;;;;;;;1999.90;999.90;;;1.60;99.90;;;;;;5013997;28;20256;-74
2024/01/14 06:17:06;;;;;;;1999.90;999.90;;;1.50;99.90;;;;;;5014206;28;20619;-74
2024/01/14 06:19:32;;;;;;;1999.90;999.90;;;1.60;99.90;;;;;;5014154;28;20675;-74
2024/01/14 06:22:00;;;;;;;1999.90;999.90;;;4.00;99.90;;;;;;5014044;28;20185;-75
2024/01/14 06:24:26;;;;;;;1999.90;999.90;;;1.50;99.90;;;;;;5013906;28;20165;-75
2024/01/14 06:26:52;;;;;;;1999.90;999.90;;;1.60;99.90;;;;;;5013702;28;20300;-76
2024/01/14 06:29:18;;;;;;;1999.90;999.90;;;1.70;99.90;;;;;;5013930;28;20180;-76
2024/01/14 06:31:45;;;;;;;1999.90;999.90;;;1.60;99.90;;;;;;5013653;28;20213;-75
2024/01/14 06:34:11;;;;;;;1999.90;999.90;;;1.60;99.90;;;;;;5013682;28;20531;-75
2024/01/14 06:36:37;;;;;;;1999.90;999.90;;;1.60;99.90;;;;;;5013773;28;20267;-74
2024/01/14 06:39:02;;;;;;;1999.90;999.90;;;1.60;99.90;;;;;;5013764;28;20200;-74
2024/01/14 06:41:28;;;;;;;1999.90;999.90;;;1.50;99.90;;;;;;5013741;28;20197;-74
2024/01/14 06:43:54;;;;;;;1999.90;999.90;;;1.50;99.90;;;;;;5013439;28;20173;-74
2024/01/14 06:46:19;;;;;;;1999.90;999.90;;;1.50;99.90;;;;;;5013636;28;20175;-74
2024/01/14 06:48:45;;;;;;;1999.90;999.90;;;1.60;99.90;;;;;;5013624;28;20235;-74
2024/01/14 06:51:10;;;;;;;1999.90;999.90;;;1.60;99.90;;;;;;5013227;28;20213;-74
2024/01/14 06:53:36;;;;;;;1999.90;999.90;;;1.60;99.90;;;;;;5013530;28;20565;-74
2024/01/14 06:56:02;;;;;;;1999.90;999.90;;;1.30;99.90;;;;;;5013518;28;20249;-74
2024/01/14 06:58:28;;;;;;;1999.90;999.90;;;1.50;99.90;;;;;;5013442;28;20252;-74
2024/01/14 07:00:54;;;;;;;1999.90;999.90;;;1.50;99.90;;;;;;5013619;28;20224;-75
2024/01/14 07:03:20;;;;;;;1999.90;999.90;;;1.50;99.90;;;;;;5013330;28;20173;-75
2024/01/14 07:05:46;;;;;;;1999.90;999.90;;;1.60;99.90;;;;;;5013078;28;20165;-75
2024/01/14 07:08:11;;;;;;;1999.90;999.90;;;1.70;99.90;;;;;;5013287;28;20172;-75
2024/01/14 07:10:37;;;;;;;1999.90;999.90;;;1.70;99.90;;;;;;5013163;28;20184;-74
2024/01/14 07:13:03;;;;;;;1999.90;999.90;;;1.50;99.90;;;;;;5013073;28;20193;-75
2024/01/14 07:15:28;;;;;;;1999.90;999.90;;;1.60;99.90;;;;;;5012957;28;20165;-76
2024/01/14 07:17:54;;;;;;;1999.90;999.90;;;1.60;99.90;;;;;;5013147;28;20400;-75
2024/01/14 07:20:20;;;;;;;1999.90;999.90;;;1.50;99.90;;;;;;5012996;28;20173;-75
2024/01/14 07:22:45;;;;;;;1999.90;999.90;;;1.50;99.90;;;;;;5013010;28;20173;-75
2024/01/14 07:25:11;;;;;;;1999.90;999.90;;;1.70;99.90;;;;;;5012729;28;20169;-75
2024/01/14 07:27:37;;;;;;;1999.90;999.90;;;1.50;99.90;;;;;;5013027;28;20217;-75
2024/01/14 07:30:04;;;;;;;1999.90;999.90;;;1.30;99.90;;;;;;5012715;28;20165;-75
2024/01/14 07:32:30;;;;;;;1999.90;999.90;;;1.40;99.90;;;;;;5012791;28;21044;-75
2024/01/14 07:34:56;;;;;;;1999.90;999.90;;;1.60;99.90;;;;;;5012622;28;20181;-75
2024/01/14 07:37:22;;;;;;;1999.90;999.90;;;1.60;99.90;;;;;;5012769;28;20173;-75
2024/01/14 07:39:47;;;;;;;1999.90;999.90;;;1.60;99.90;;;;;;5012753;28;20173;-75
2024/01/14 07:42:13;;;;;;;1999.90;999.90;;;1.50;99.90;;;;;;5012584;28;20438;-76
2024/01/14 07:44:38;;;;;;;1999.90;999.90;;;3.50;99.90;;;;;;5012444;28;20231;-75
2024/01/14 07:47:04;;;;;;;1999.90;999.90;;;1.50;99.90;;;;;;5012606;28;20173;-75
2024/01/14 07:49:30;;;;;;;1999.90;999.90;;;1.50;99.90;;;;;;5012636;28;20180;-75
2024/01/14 07:51:55;;;;;;;1999.90;999.90;;;1.50;99.90;;;;;;5012480;28;20559;-74
2024/01/14 07:54:21;;;;;;;1999.90;999.90;;;1.60;99.90;;;;;;5012292;28;20263;-74
2024/01/14 07:56:47;;;;;;;1999.90;999.90;;;1.50;99.90;;;;;;5012401;28;20219;-74
2024/01/14 07:59:12;;;;;;;1999.90;999.90;;;1.70;99.90;;;;;;5012445;28;20173;-74
2024/01/14 08:01:38;;;;;;;1999.90;999.90;;;1.50;99.90;;;;;;5012362;28;20200;-74
2024/01/14 08:04:04;;;;;;;1999.90;999.90;;;1.50;99.90;;;;;;5011547;28;20209;-74
2024/01/14 08:06:29;;;;;;;1999.90;999.90;;;1.60;99.90;;;;;;5012318;28;20667;-74
2024/01/14 08:08:55;;;;;;;1999.90;999.90;;;1.50;99.90;;;;;;5012351;28;20176;-74
2024/01/14 08:11:22;;;;;;;1999.90;999.90;;;1.60;99.90;;;;;;5012102;28;20252;-74
2024/01/14 08:13:48;;;;;;;1999.90;999.90;;;1.70;99.90;;;;;;5012015;28;20173;-74
2024/01/14 08:16:14;;;;;;;1999.90;999.90;;;1.60;99.90;;;;;;5012160;28;20172;-74
2024/01/14 08:18:40;;;;;;;1999.90;999.90;;;1.50;99.90;;;;;;5012138;28;20173;-74
2024/01/14 08:21:10;;;;;;;1999.90;999.90;;;1.60;99.90;;;;;;5012073;28;20525;-74
2024/01/14 08:23:36;;;;;;;1999.90;999.90;;;1.60;99.90;;;;;;5012140;28;20252;-74
2024/01/14 08:26:03;;;;;;;1999.90;999.90;;;1.60;99.90;;;;;;5012003;28;20176;-74
2024/01/14 08:28:31;;;;;;;1999.90;999.90;;;1.60;99.90;;;;;;5012049;28;20175;-75
2024/01/14 08:30:56;;;;;;;1999.90;999.90;;;1.40;99.90;;;;;;5011792;28;20291;-75
2024/01/14 08:33:22;;;;;;;1999.90;999.90;;;1.70;99.90;;;;;;5011952;28;20264;-74
2024/01/14 08:35:47;;;;;;;1999.90;999.90;;;1.70;99.90;;;;;;5011781;28;20176;-74
2024/01/14 08:38:13;;;;;;;1999.90;999.90;;;1.70;99.90;;;;;;5012038;28;20173;-75
2024/01/14 08:40:38;;;;;;;1999.90;999.90;;;1.70;99.90;;;;;;5011903;28;20185;-75
2024/01/14 08:43:04;;;;;;;1999.90;999.90;;;1.60;99.90;;;;;;5011994;28;20176;-76
2024/01/14 08:45:29;;;;;;;1999.90;999.90;;;1.80;99.90;;;;;;5011693;28;20180;-75
2024/01/14 08:47:55;;;;;;;1999.90;999.90;;;1.50;99.90;;;;;;5011908;28;20256;-75
2024/01/14 08:50:21;;;;;;;1999.90;999.90;;;1.60;99.90;;;;;;5011838;28;20196;-75
2024/01/14 08:52:46;;;;;;;1999.90;999.90;;;1.60;99.90;;;;;;5011790;28;20201;-75
2024/01/14 08:55:13;;;;;;;1999.90;999.90;;;1.70;99.90;;;;;;5011585;28;20165;-75
2024/01/14 08:57:39;;;;;;;1999.90;999.90;;;1.90;99.90;;;;;;5010651;28;20172;-74
2024/01/14 09:00:06;;;;;;;1999.90;999.90;;;1.50;99.90;;;;;;5011791;28;20764;-75
2024/01/14 09:02:32;;;;;;;1999.90;999.90;;;1.50;99.90;;;;;;5011683;28;20408;-74
2024/01/14 09:04:57;;;;;;;1999.90;999.90;;;1.70;99.90;;;;;;5011596;28;20303;-75
2024/01/14 09:07:23;;;;;;;1999.90;999.90;;;1.70;99.90;;;;;;5011782;28;20641;-74
2024/01/14 09:09:48;;;;;;;1999.90;999.90;;;1.70;99.90;;;;;;5011776;28;20181;-75
2024/01/14 09:12:14;;;;;;;1999.90;999.90;;;1.80;99.90;;;;;;5011521;28;20193;-74
2024/01/14 09:14:40;;;;;;;1999.90;999.90;;;1.70;99.90;;;;;;5013340;28;20535;-75
2024/01/14 09:17:05;;;;;;;1999.90;999.90;;;1.70;99.90;;;;;;5015364;28;20403;-75
2024/01/14 09:19:31;;;;;;;1999.90;999.90;;;1.60;99.90;;;;;;5015341;28;20244;-75
2024/01/14 09:21:57;;;;;;;1999.90;999.90;;;1.70;99.90;;;;;;5015375;28;20710;-75
2024/01/14 09:24:22;;;;;;;1999.90;999.90;;;1.80;99.90;;;;;;5014925;28;20173;-75
2024/01/14 09:26:48;;;;;;;1999.90;999.90;;;1.80;99.90;;;;;;5015285;28;20173;-75
2024/01/14 09:29:13;;;;;;;1999.90;999.90;;;1.70;99.90;;;;;;5015207;28;20169;-75
2024/01/14 09:31:39;;;;;;;1999.90;999.90;;;1.70;99.90;;;;;;5014809;28;20219;-75
2024/01/14 09:34:05;;;;;;;1999.90;999.90;;;1.70;99.90;;;;;;5014892;28;20189;-75
2024/01/14 09:36:33;;;;;;;1999.90;999.90;;;1.70;99.90;;;;;;5015025;28;20161;-74
2024/01/14 09:38:59;;;;;;;1999.90;999.90;;;1.60;99.90;;;;;;5014936;28;20169;-75
2024/01/14 09:41:43;;;;;;;1999.90;999.90;;;1.70;99.90;;;;;;5014805;28;20211;-76
2024/01/14 09:44:14;;;;;;;1999.90;999.90;;;1.50;99.90;;;;;;5014623;28;20421;-75
2024/01/14 09:46:40;;;;;;;1999.90;999.90;;;1.40;99.90;;;;;;5014758;28;20169;-75
2024/01/14 09:49:06;;;;;;;1999.90;999.90;;;1.60;99.90;;;;;;5014791;28;20253;-75
2024/01/14 09:51:33;;;;;;;1999.90;999.90;;;1.40;99.90;;;;;;5014556;28;20239;-75
2024/01/14 09:54:01;;;;;;;1999.90;999.90;;;1.50;99.90;;;;;;5014374;28;20167;-75
2024/01/14 09:56:31;;;;;;;1999.90;999.90;;;1.50;99.90;;;;;;5014649;28;20177;-75
2024/01/14 09:58:57;;;;;;;1999.90;999.90;;;1.50;99.90;;;;;;5014607;28;20169;-75
2024/01/14 10:01:30;;;;;;;1999.90;999.90;;;1.50;99.90;;;;;;5014489;28;20197;-75
2024/01/14 10:04:00;;;;;;;1999.90;999.90;;;1.50;99.90;;;;;;5014336;28;20177;-75
2024/01/14 10:06:27;;;;;;;1999.90;999.90;;;1.50;99.90;;;;;;5014410;28;20170;-75
2024/01/14 10:08:53;;;;;;;1999.90;999.90;;;1.50;99.90;;;;;;5014395;28;20259;-75
2024/01/14 10:11:18;;;;;;;1999.90;999.90;;;1.30;99.90;;;;;;5014150;28;20308;-75
2024/01/14 10:13:44;;;;;;;1999.90;999.90;;;1.40;99.90;;;;;;5014089;28;20172;-75
2024/01/14 10:16:13;;;;;;;1999.90;999.90;;;1.50;99.90;;;;;;5014236;28;20164;-76
2024/01/14 10:18:39;;;;;;;1999.90;999.90;;;1.50;99.90;;;;;;5014171;28;20532;-75
2024/01/14 10:21:05;;;;;;;1999.90;999.90;;;1.50;99.90;;;;;;5014151;28;20200;-75
2024/01/14 10:23:31;;;;;;;1999.90;999.90;;;1.40;99.90;;;;;;5014172;28;20169;-76
2024/01/14 10:26:02;;;;;;;1999.90;999.90;;;1.50;99.90;;;;;;5013192;28;20180;-74
2024/01/14 10:28:34;;;;;;;1999.90;999.90;;;1.40;99.90;;;;;;5014145;28;20196;-73
2024/01/14 10:31:02;;;;;;;1999.90;999.90;;;1.40;99.90;;;;;;5013860;28;20205;-74
2024/01/14 10:33:31;;;;;;;1999.90;999.90;;;1.50;99.90;;;;;;5013908;28;20189;-74
2024/01/14 10:35:57;;;;;;;1999.90;999.90;;;1.60;99.90;;;;;;5013679;28;20223;-74
2024/01/14 10:38:23;;;;;;;1999.90;999.90;;;1.50;99.90;;;;;;5013799;28;20165;-74
2024/01/14 10:40:49;;;;;;;1999.90;999.90;;;1.40;99.90;;;;;;5013763;28;20192;-74
2024/01/14 10:43:15;;;;;;;1999.90;999.90;;;1.40;99.90;;;;;;5013756;28;20172;-74
2024/01/14 10:45:41;;;;;;;1999.90;999.90;;;1.40;99.90;;;;;;5013451;28;20188;-74
2024/01/14 10:48:11;;;;;;;1999.90;999.90;;;1.30;99.90;;;;;;5013524;28;20268;-74
2024/01/14 10:50:38;;;;;;;1999.90;999.90;;;1.40;99.90;;;;;;5013593;28;20224;-74
2024/01/14 10:53:07;;;;;;;1999.90;999.90;;;1.40;99.90;;;;;;5013381;28;20562;-74
2024/01/14 10:55:43;;;;;;;1999.90;999.90;;;1.50;99.90;;;;;;5012841;28;20240;-75
2024/01/14 10:58:17;;;;;;;1999.90;999.90;;;1.50;99.90;;;;;;5013503;28;20169;-74
2024/01/14 11:00:48;;;;;;;1999.90;999.90;;;1.50;99.90;;;;;;5013382;28;20287;-75
2024/01/14 11:03:14;;;;;;;1999.90;999.90;;;1.50;99.90;;;;;;5013378;28;20173;-74
2024/01/14 11:05:40;;;;;;;1999.90;999.90;;;1.50;99.90;;;;;;5013034;28;20223;-74
2024/01/14 11:08:05;;;;;;;1999.90;999.90;;;1.60;99.90;;;;;;5013255;28;20173;-75
2024/01/14 11:10:32;;;;;;;1999.90;999.90;;;1.60;99.90;;;;;;5013154;28;20276;-75
2024/01/14 11:13:07;;;;;;;1999.90;999.90;;;1.50;99.90;;;;;;5013103;28;20259;-75
2024/01/14 11:15:42;;;;;;;1999.90;999.90;;;1.50;99.90;;;;;;5012960;28;20534;-74
2024/01/14 11:18:16;;;;;;;1999.90;999.90;;;1.60;99.90;;;;;;5013141;28;20173;-74
2024/01/14 11:20:45;;;;;;;1999.90;999.90;;;1.70;99.90;;;;;;5012640;28;20193;-75
2024/01/14 11:23:10;;;;;;;1999.90;999.90;;;1.60;99.90;;;;;;5012333;28;20177;-74
2024/01/14 11:25:36;;;;;;;1999.90;999.90;;;1.00;99.90;;;;;;5007444;28;20203;-75
2024/01/14 11:28:04;;;;;;;1999.90;999.90;;;1.70;99.90;;;;;;5012381;28;20275;-75
2024/01/14 11:30:48;;;;;;;1999.90;999.90;;;1.80;99.90;;;;;;5006347;28;20467;-74
2024/01/14 11:33:28;;;;;;;1999.90;999.90;;;1.70;99.90;;;;;;4996293;28;20704;-74
2024/01/14 11:35:55;;;;;;;1999.90;999.90;;;1.70;99.90;;;;;;4992730;28;20177;-74
2024/01/14 11:38:34;;;;;;;1999.90;999.90;;;1.70;99.90;;;;;;4992008;28;20173;-74
2024/01/14 11:41:25;;;;;;;1999.90;999.90;;;1.40;99.90;;;;;;4992890;28;20196;-74
2024/01/14 11:43:53;;;;;;;1999.90;999.90;;;1.40;99.90;;;;;;4992762;28;20257;-74
2024/01/14 11:46:38;;;;;;;1999.90;999.90;;;1.60;99.90;;;;;;4992545;28;20174;-74
2024/01/14 11:49:09;;;;;;;1999.90;999.90;;;1.60;99.90;;;;;;4999158;28;20613;-75
2024/01/14 11:51:43;;;;;;;1999.90;999.90;;;1.50;99.90;;;;;;5012140;28;20287;-74
2024/01/14 11:54:12;;;;;;;1999.90;999.90;;;1.50;99.90;;;;;;5012211;28;20169;-74
2024/01/14 11:56:39;;;;;;;1999.90;999.90;;;1.60;99.90;;;;;;5012377;28;20181;-75
2024/01/14 11:59:09;;;;;;;1999.90;999.90;;;1.70;99.90;;;;;;5012469;28;20252;-75
2024/01/14 12:01:35;;;;;;;1999.90;999.90;;;1.60;99.90;;;;;;5012159;28;20197;-74
2024/01/14 12:04:02;;;;;;;1999.90;999.90;;;1.70;99.90;;;;;;5012170;28;20195;-76